Flight Track Log - Related Links

Times and Time Zones

All times are in EDT time to prevent confusion due to time zone crossing. See the SWA1319 flight status page for this flight to view local times or setup timezone preferences in your user account.

Time Position Orientation Groundspeed Altitude Reporting Facility
EDT Latitude Longitude Course Direction KTS MPH feet Rate Location/Type
Wed 03:35:08 PM 32.7667 -96.7500 128° Southeast 230 265 5,800  Level Dallas / Fort Worth TRACON
Wed 03:36:08 PM 32.8333 -96.7167 23° Northeast 313 360 7,600 2,070 Climbing Dallas / Fort Worth TRACON
Wed 03:38:28 PM 33.0550 -96.7517 352° North 351 404 12,700 2,010 Climbing Fort Worth Center
Wed 03:39:00 PM 33.4529 -96.6494 North  Level FlightAware Approximate
Wed 03:39:28 PM 33.1469 -96.7683 351° North 368 423 14,300  Level Fort Worth Center
Wed 03:40:28 PM 33.2661 -96.7897 351° North 387 445 16,500 2,000 Climbing Fort Worth Center
Wed 03:41:28 PM 33.3664 -96.8067 352° North 393 452 18,300 1,765 Climbing Fort Worth Center
Wed 03:42:27 PM 33.4894 -96.8306 351° North 407 468 20,000 1,664 Climbing Fort Worth Center
Wed 03:43:27 PM 33.6022 -96.8497 352° North 413 475 21,600 1,736 Climbing Fort Worth Center
Wed 03:44:28 PM 33.7214 -96.8542 358° North 418 481 23,500 1,550 Climbing Fort Worth Center
Wed 03:45:27 PM 33.8297 -96.8233 13° North 432 497 24,700 1,100 Climbing Fort Worth Center
Wed 03:46:28 PM 33.9464 -96.7875 14° North 432 497 25,700 645 Climbing Fort Worth Center
Wed 03:47:28 PM 34.0694 -96.7492 14° North 439 505 26,000 151 Climbing Fort Worth Center
Wed 03:48:27 PM 34.1964 -96.7103 14° North 427 491 26,000 200 Level Fort Worth Center
Wed 03:49:28 PM 34.3172 -96.6742 14° North 433 498 26,400 645 Climbing Fort Worth Center
Wed 03:50:28 PM 34.4400 -96.6356 15° North 438 504 27,300 1,150 Climbing Fort Worth Center
Wed 03:51:28 PM 34.5650 -96.5964 14° North 448 516 28,700 1,100 Climbing Fort Worth Center
Wed 03:52:28 PM 34.6900 -96.5550 15° North 453 521 29,500 1,050 Climbing Fort Worth Center
Wed 03:53:28 PM 34.8169 -96.5156 14° North 453 521 30,800 1,050 Climbing Fort Worth Center
Wed 03:54:28 PM 34.9417 -96.4739 15° North 458 527 31,600 650 Climbing Fort Worth Center
Wed 03:55:28 PM 35.0708 -96.4344 14° North 463 533 32,100 700 Climbing Fort Worth Center
Wed 03:56:28 PM 35.2019 -96.3922 15° North 468 539 33,000 316 Climbing Fort Worth Center
Wed 03:58:19 PM 35.4311 -96.3169 15° North 482 555 33,000  Level Kansas City Center
Wed 03:59:20 PM 35.5608 -96.2756 15° North 483 556 33,000  Level Kansas City Center
Wed 04:00:24 PM 35.6914 -96.2328 15° North 486 559 33,000  Level Kansas City Center
Wed 04:01:25 PM 35.8333 -96.1872 15° North 486 559 33,000  Level Kansas City Center
Wed 04:02:26 PM 35.9644 -96.1456 14° North 484 557 33,000  Level Kansas City Center
Wed 04:03:29 PM 36.0961 -96.1033 15° North 485 558 33,000  Level Kansas City Center
Wed 04:04:31 PM 36.2272 -96.0603 15° North 484 557 33,000  Level Kansas City Center
Wed 04:05:34 PM 36.3847 -96.0097 14° North 482 555 33,000  Level Kansas City Center
Wed 04:06:35 PM 36.5153 -95.9661 15° North 480 552 33,000  Level Kansas City Center
Wed 04:07:36 PM 36.6453 -95.9231 15° North 478 550 33,000  Level Kansas City Center
Wed 04:08:38 PM 36.7733 -95.8803 15° North 474 545 33,000  Level Kansas City Center
Wed 04:09:41 PM 36.9011 -95.8389 15° North 471 542 33,000  Level Kansas City Center
Wed 04:10:41 PM 37.0272 -95.7975 15° North 466 536 33,000  Level Kansas City Center
Wed 04:11:45 PM 37.1531 -95.7539 15° North 468 539 33,000  Level Kansas City Center
Wed 04:12:46 PM 37.2794 -95.7119 15° North 468 539 33,000 -341 Level Kansas City Center
Wed 04:13:48 PM 37.4047 -95.6686 15° North 466 536 32,300 -984 Descending Kansas City Center
Wed 04:14:48 PM 37.5556 -95.6169 15° North 465 535 31,000 -1,113 Descending Kansas City Center
Wed 04:15:52 PM 37.6803 -95.5803 13° North 460 529 30,000 -912 Descending Kansas City Center
Wed 04:16:53 PM 37.8069 -95.5700 North 456 525 29,100 -960 Descending Kansas City Center
Wed 04:17:57 PM 37.9458 -95.5475 North 459 528 28,000 -960 Descending Kansas City Center
Wed 04:18:58 PM 38.0703 -95.5303 North 463 533 27,100 -893 Descending Kansas City Center
Wed 04:19:58 PM 38.1939 -95.5133 North 464 534 26,200 -960 Descending Kansas City Center
Wed 04:21:03 PM 38.3372 -95.4919 North 464 534 25,100 -1,056 Descending Kansas City Center
Wed 04:22:03 PM 38.4583 -95.4731 North 459 528 24,000 -1,623 Descending Kansas City Center
Wed 04:23:05 PM 38.5881 -95.4544 North 425 489 21,800 -2,016 Descending Kansas City Center
Wed 04:24:08 PM 38.6972 -95.4369 North 411 473 19,800 -2,129 Descending Kansas City Center
Wed 04:25:09 PM 38.8167 -95.4031 12° North 400 460 17,400 -2,164 Descending Kansas City Center
Wed 04:26:10 PM 38.8878 -95.3033 47° Northeast 397 457 15,400 -2,016 Descending Kansas City Center
Wed 04:27:14 PM 38.9678 -95.1925 47° Northeast 381 438 13,200 -1,694 Descending Kansas City Center
Wed 04:28:14 PM 39.0342 -95.0967 48° Northeast 378 435 11,900 -1,180 Descending Kansas City Center
Wed 04:29:16 PM 39.1094 -94.9892 48° Northeast 367 422 10,800 -1,048 Descending Kansas City Center
Wed 04:30:20 PM 39.1706 -94.9028 48° Northeast 345 397 9,700 -1,200 Descending Kansas City Center
Wed 04:31:21 PM 39.2547 -94.8456 28° Northeast 316 364 8,300 -1,415 Descending Kansas City Center
Wed 04:32:23 PM 39.3344 -94.8156 16° North 313 360 6,800 -1,524 Descending Kansas City Center
Wed 04:33:27 PM 39.4267 -94.7822 16° North 310 357 5,100 -1,210 Descending Kansas City Center
Wed 04:34:27 PM 39.5036 -94.7706 North 293 337 4,300 -942 Descending Kansas City Center
Wed 04:35:28 PM 39.5428 -94.6944 56° Northeast 254 292 3,200 -576 Descending Kansas City Center
Wed 04:36:32 PM 39.4986 -94.6694 156° South 195 224 3,100 -48 Descending Kansas City Center
Wed 04:37:33 PM 39.4456 -94.6842 192° South 174 200 3,100 -195 Level Kansas City Center
Wed 04:38:35 PM 39.4022 -94.6969 193° South 169 194 2,700 -528 Descending Kansas City Center
Wed 04:39:38 PM 39.3647 -94.7083 193° South 149 171 2,000 -768 Descending Kansas City Center
Wed 04:40:40 PM 39.3183 -94.7219 193° South 155 178 1,100 -871 Descending Kansas City Center

Login

Don't have an account? Register now (free) for customized features, flight alerts, and more!